Time;durP1;ratioP1;P1;durP2;ratioP2;P2;SDS_P1;SDS_P2;PMS_P1;PMS_P2;Temp;Humidity;BMP_temperature;BMP_pressure;BME280_temperature;BME280_humidity;BME280_pressure;Samples;Min_cycle;Max_cycle;Signal;HPM_P1;HPM_P2
2021/10/29 00:01:38;;;;;;;11.38;7.90;;;;;;;;;;5086649;28;20526;-73
2021/10/29 00:04:05;;;;;;;9.98;8.02;;;;;;;;;;5090507;28;20421;-71
2021/10/29 00:06:31;;;;;;;12.25;9.00;;;;;;;;;;5101462;28;20635;-72
2021/10/29 00:08:57;;;;;;;10.82;8.70;;;;;;;;;;5098241;28;20082;-73
2021/10/29 00:11:23;;;;;;;13.80;9.15;;;;;;;;;;5099067;28;20834;-71
2021/10/29 00:13:49;;;;;;;14.70;8.40;;;;;;;;;;5102038;28;20596;-72
2021/10/29 00:16:16;;;;;;;12.10;8.35;;;;;;;;;;5091348;28;20024;-70
2021/10/29 00:18:42;;;;;;;13.98;8.50;;;;;;;;;;5099998;28;20053;-72
2021/10/29 00:21:08;;;;;;;11.55;8.40;;;;;;;;;;5100301;28;20027;-71
2021/10/29 00:23:34;;;;;;;13.13;9.75;;;;;;;;;;5097191;28;20020;-73
2021/10/29 00:26:00;;;;;;;12.68;8.77;;;;;;;;;;5099901;28;20012;-71
2021/10/29 00:28:27;;;;;;;14.65;8.90;;;;;;;;;;5098853;28;20042;-72
2021/10/29 00:30:53;;;;;;;16.92;8.70;;;;;;;;;;5101676;28;20012;-71
2021/10/29 00:33:19;;;;;;;9.60;8.60;;;;;;;;;;5094280;28;20024;-71
2021/10/29 00:35:46;;;;;;;12.63;9.07;;;;;;;;;;5101628;28;20051;-72
2021/10/29 00:38:12;;;;;;;13.68;8.88;;;;;;;;;;5092922;28;20042;-71
2021/10/29 00:40:42;;;;;;;10.95;8.40;;;;;;;;;;5101355;28;20019;-72
2021/10/29 00:43:09;;;;;;;11.25;8.52;;;;;;;;;;5096620;28;20015;-71
2021/10/29 00:45:35;;;;;;;11.05;8.52;;;;;;;;;;5098912;28;20028;-71
2021/10/29 00:48:01;;;;;;;10.80;8.27;;;;;;;;;;5097617;28;20567;-72
2021/10/29 00:50:27;;;;;;;13.48;9.30;;;;;;;;;;5098180;28;20120;-72
2021/10/29 00:52:54;;;;;;;16.38;10.20;;;;;;;;;;5095916;28;20545;-71
2021/10/29 00:55:21;;;;;;;14.85;10.30;;;;;;;;;;5096609;28;20114;-71
2021/10/29 00:57:47;;;;;;;13.60;10.45;;;;;;;;;;5101500;28;20481;-71
2021/10/29 01:00:14;;;;;;;13.60;10.20;;;;;;;;;;5098581;28;20024;-71
2021/10/29 01:02:40;;;;;;;14.82;10.20;;;;;;;;;;5095339;28;20031;-71
2021/10/29 01:05:07;;;;;;;14.98;11.07;;;;;;;;;;5107458;27;20024;-71
2021/10/29 01:07:33;;;;;;;11.88;10.05;;;;;;;;;;5097025;28;20019;-71
2021/10/29 01:09:59;;;;;;;14.30;9.75;;;;;;;;;;5104750;28;20068;-72
2021/10/29 01:12:26;;;;;;;14.73;10.32;;;;;;;;;;5100841;28;20034;-71
2021/10/29 01:14:56;;;;;;;15.63;10.95;;;;;;;;;;5096111;28;20024;-71
2021/10/29 01:17:22;;;;;;;14.57;10.82;;;;;;;;;;5102380;28;20032;-72
2021/10/29 01:19:51;;;;;;;16.55;11.57;;;;;;;;;;5100491;28;20020;-72
2021/10/29 01:22:17;;;;;;;12.43;10.25;;;;;;;;;;5095314;28;20023;-70
2021/10/29 01:24:44;;;;;;;16.75;10.20;;;;;;;;;;5098266;28;20035;-71
2021/10/29 01:27:11;;;;;;;15.35;11.57;;;;;;;;;;5099219;28;20377;-72
2021/10/29 01:29:38;;;;;;;14.25;10.80;;;;;;;;;;5095924;28;20112;-70
2021/10/29 01:32:04;;;;;;;20.50;11.57;;;;;;;;;;5098485;28;20024;-71
2021/10/29 01:34:32;;;;;;;15.82;11.73;;;;;;;;;;5100261;28;20534;-72
2021/10/29 01:36:58;;;;;;;14.63;10.38;;;;;;;;;;5097081;28;20069;-72
2021/10/29 01:39:25;;;;;;;15.50;11.65;;;;;;;;;;5098457;28;20392;-70
2021/10/29 01:41:51;;;;;;;15.55;11.27;;;;;;;;;;5099724;28;20084;-71
2021/10/29 01:44:17;;;;;;;12.30;10.80;;;;;;;;;;5102257;28;20023;-72
2021/10/29 01:46:43;;;;;;;15.50;11.05;;;;;;;;;;5099461;28;20020;-71
2021/10/29 01:49:10;;;;;;;17.70;12.10;;;;;;;;;;5100591;28;20044;-72
2021/10/29 01:51:36;;;;;;;14.70;10.82;;;;;;;;;;5100152;28;20032;-71
2021/10/29 01:54:02;;;;;;;12.75;10.68;;;;;;;;;;5094693;28;20036;-71
2021/10/29 01:56:29;;;;;;;17.15;11.45;;;;;;;;;;5100881;28;20467;-71
2021/10/29 01:58:55;;;;;;;12.18;10.25;;;;;;;;;;5100477;28;20404;-71
2021/10/29 02:01:21;;;;;;;14.02;10.23;;;;;;;;;;5105343;28;20024;-71
2021/10/29 02:03:48;;;;;;;13.30;11.00;;;;;;;;;;5096421;28;20024;-71
2021/10/29 02:06:14;;;;;;;15.27;10.65;;;;;;;;;;5098354;28;20112;-71
2021/10/29 02:08:40;;;;;;;13.15;10.30;;;;;;;;;;5102427;28;20038;-71
2021/10/29 02:11:06;;;;;;;14.93;10.55;;;;;;;;;;5098236;28;20026;-71
2021/10/29 02:13:33;;;;;;;15.45;10.05;;;;;;;;;;5100888;28;20079;-72
2021/10/29 02:15:59;;;;;;;13.90;9.05;;;;;;;;;;5096223;28;20465;-74
2021/10/29 02:18:25;;;;;;;14.05;9.13;;;;;;;;;;5101045;28;20391;-71
2021/10/29 02:20:52;;;;;;;15.10;9.57;;;;;;;;;;5096759;28;20031;-71
2021/10/29 02:23:18;;;;;;;13.65;9.85;;;;;;;;;;5094343;28;20024;-71
2021/10/29 02:25:46;;;;;;;12.23;9.68;;;;;;;;;;5101063;28;20119;-71
2021/10/29 02:28:16;;;;;;;14.57;9.85;;;;;;;;;;5094105;28;20126;-71
2021/10/29 02:30:43;;;;;;;18.33;9.60;;;;;;;;;;5097214;28;20012;-70
2021/10/29 02:33:09;;;;;;;11.18;9.48;;;;;;;;;;5093103;28;20531;-73
2021/10/29 02:35:36;;;;;;;14.68;9.68;;;;;;;;;;5093947;28;20506;-72
2021/10/29 02:38:03;;;;;;;12.85;9.20;;;;;;;;;;5092171;28;20045;-72
2021/10/29 02:40:29;;;;;;;10.75;9.65;;;;;;;;;;5097877;27;20081;-70
2021/10/29 02:42:55;;;;;;;15.35;9.50;;;;;;;;;;5094329;28;20023;-72
2021/10/29 02:45:22;;;;;;;14.15;9.93;;;;;;;;;;5089459;28;20031;-71
2021/10/29 02:47:48;;;;;;;10.95;9.63;;;;;;;;;;5090546;28;20092;-72
2021/10/29 02:50:16;;;;;;;15.27;9.93;;;;;;;;;;5096006;28;20056;-71
2021/10/29 02:52:42;;;;;;;14.63;9.90;;;;;;;;;;5089372;28;20055;-71
2021/10/29 02:55:08;;;;;;;14.18;10.25;;;;;;;;;;5096872;28;20426;-71
2021/10/29 02:57:36;;;;;;;13.65;10.27;;;;;;;;;;5091455;28;20016;-70
2021/10/29 03:00:03;;;;;;;15.30;10.00;;;;;;;;;;5094093;28;20036;-71
2021/10/29 03:02:29;;;;;;;11.18;9.98;;;;;;;;;;5089496;28;20024;-74
2021/10/29 03:04:56;;;;;;;15.25;10.05;;;;;;;;;;5092189;28;20024;-71
2021/10/29 03:07:22;;;;;;;13.05;10.27;;;;;;;;;;5093291;28;20036;-71
2021/10/29 03:09:48;;;;;;;12.13;10.40;;;;;;;;;;5089103;28;20074;-72
2021/10/29 03:12:14;;;;;;;15.02;10.32;;;;;;;;;;5103849;28;20033;-71
2021/10/29 03:14:40;;;;;;;12.35;10.98;;;;;;;;;;5089783;28;20051;-70
2021/10/29 03:17:06;;;;;;;11.07;9.77;;;;;;;;;;5088742;28;20433;-70
2021/10/29 03:19:32;;;;;;;10.65;9.65;;;;;;;;;;5088687;28;20024;-74
2021/10/29 03:21:59;;;;;;;13.68;10.00;;;;;;;;;;5087008;28;20024;-71
2021/10/29 03:24:25;;;;;;;17.98;10.80;;;;;;;;;;5090326;28;20236;-71
2021/10/29 03:26:51;;;;;;;11.25;9.25;;;;;;;;;;5087218;28;20031;-71
2021/10/29 03:29:17;;;;;;;10.75;9.60;;;;;;;;;;5090976;28;20044;-71
2021/10/29 03:31:43;;;;;;;11.73;9.32;;;;;;;;;;5087058;28;20024;-71
2021/10/29 03:34:09;;;;;;;12.95;9.68;;;;;;;;;;5094085;28;20020;-71
2021/10/29 03:36:36;;;;;;;14.80;9.25;;;;;;;;;;5101938;28;20028;-71
2021/10/29 03:39:20;;;;;;;10.38;8.77;;;;;;;;;;5096951;28;20031;-73
2021/10/29 03:41:56;;;;;;;12.73;9.07;;;;;;;;;;5091720;28;20027;-70
2021/10/29 03:44:32;;;;;;;14.77;9.80;;;;;;;;;;5093532;28;20020;-73
2021/10/29 03:47:00;;;;;;;12.55;8.80;;;;;;;;;;5092552;28;20020;-74
2021/10/29 03:49:38;;;;;;;15.23;8.82;;;;;;;;;;5090915;28;20052;-72
2021/10/29 03:52:20;;;;;;;10.52;9.43;;;;;;;;;;5095019;28;20028;-70
2021/10/29 03:54:50;;;;;;;;;;;;;;;;;;5092181;28;20081;-71
2021/10/29 03:57:27;;;;;;;11.02;9.07;;;;;;;;;;5096562;28;19907;-71
2021/10/29 03:59:54;;;;;;;12.00;9.13;;;;;;;;;;5096801;28;20024;-70
2021/10/29 04:02:25;;;;;;;13.02;9.40;;;;;;;;;;5099244;28;20062;-71
2021/10/29 04:04:51;;;;;;;10.93;8.95;;;;;;;;;;5094704;28;20032;-71
2021/10/29 04:07:18;;;;;;;17.35;10.02;;;;;;;;;;5094740;27;20119;-71
2021/10/29 04:09:44;;;;;;;10.35;9.30;;;;;;;;;;5095808;28;20328;-70
2021/10/29 04:12:11;;;;;;;11.30;8.80;;;;;;;;;;5090273;28;20024;-71
2021/10/29 04:14:37;;;;;;;14.05;9.48;;;;;;;;;;5093646;28;20128;-71
2021/10/29 04:17:04;;;;;;;13.93;9.70;;;;;;;;;;5089767;28;20027;-71
2021/10/29 04:19:31;;;;;;;11.25;9.48;;;;;;;;;;5096427;28;20029;-71
2021/10/29 04:21:59;;;;;;;11.82;9.50;;;;;;;;;;5091224;28;20055;-71
2021/10/29 04:24:25;;;;;;;12.35;9.65;;;;;;;;;;5091319;28;20028;-70
2021/10/29 04:26:52;;;;;;;10.65;9.52;;;;;;;;;;5091799;28;20050;-70
2021/10/29 04:29:24;;;;;;;14.90;9.70;;;;;;;;;;5087810;28;20074;-70
2021/10/29 04:31:51;;;;;;;13.02;9.68;;;;;;;;;;5088575;28;20058;-71
2021/10/29 04:34:24;;;;;;;10.65;9.50;;;;;;;;;;5091071;28;20028;-71
2021/10/29 04:36:51;;;;;;;11.63;9.23;;;;;;;;;;5092222;28;20035;-70
2021/10/29 04:39:18;;;;;;;10.18;9.05;;;;;;;;;;5090470;28;20073;-71
2021/10/29 04:41:45;;;;;;;12.95;8.48;;;;;;;;;;5091316;28;20394;-71
2021/10/29 04:44:11;;;;;;;18.48;9.90;;;;;;;;;;5091096;28;20111;-71
2021/10/29 04:46:38;;;;;;;15.27;8.48;;;;;;;;;;5090875;28;20134;-71
2021/10/29 04:49:04;;;;;;;13.00;9.10;;;;;;;;;;5091216;28;20159;-70
2021/10/29 04:51:32;;;;;;;12.40;9.15;;;;;;;;;;5093849;28;20024;-71
2021/10/29 04:53:58;;;;;;;11.60;9.52;;;;;;;;;;5093576;28;20032;-70
2021/10/29 04:56:25;;;;;;;11.75;9.63;;;;;;;;;;5091425;28;20227;-70
2021/10/29 04:58:51;;;;;;;10.82;9.45;;;;;;;;;;5089378;28;20019;-70
2021/10/29 05:01:17;;;;;;;11.23;9.52;;;;;;;;;;5093887;28;20052;-70
2021/10/29 05:03:44;;;;;;;12.90;9.27;;;;;;;;;;5096023;28;20122;-71
2021/10/29 05:06:11;;;;;;;12.85;9.73;;;;;;;;;;5090659;28;20438;-70
2021/10/29 05:08:38;;;;;;;15.27;9.75;;;;;;;;;;5097017;27;20475;-71
2021/10/29 05:11:05;;;;;;;17.05;9.15;;;;;;;;;;5092531;28;20024;-71
2021/10/29 05:13:31;;;;;;;13.05;9.18;;;;;;;;;;5093904;28;20027;-70
2021/10/29 05:15:57;;;;;;;12.63;8.88;;;;;;;;;;5090669;28;20045;-70
2021/10/29 05:18:23;;;;;;;13.63;10.15;;;;;;;;;;5092150;28;20062;-72
2021/10/29 05:20:49;;;;;;;14.90;9.43;;;;;;;;;;5094928;28;20080;-70
2021/10/29 05:23:16;;;;;;;12.23;9.60;;;;;;;;;;5095549;28;20024;-73
2021/10/29 05:25:42;;;;;;;11.63;9.55;;;;;;;;;;5090786;28;20507;-72
2021/10/29 05:28:09;;;;;;;16.35;10.35;;;;;;;;;;5092384;28;20074;-71
2021/10/29 05:30:35;;;;;;;16.90;10.75;;;;;;;;;;5092673;28;20491;-70
2021/10/29 05:33:02;;;;;;;12.68;9.85;;;;;;;;;;5094233;28;20066;-70
2021/10/29 05:35:28;;;;;;;14.18;10.15;;;;;;;;;;5094372;28;20028;-71
2021/10/29 05:37:55;;;;;;;13.32;9.63;;;;;;;;;;5091441;28;20028;-72
2021/10/29 05:40:21;;;;;;;14.25;10.38;;;;;;;;;;5093004;28;20666;-69
2021/10/29 05:42:47;;;;;;;15.38;11.30;;;;;;;;;;5093017;28;20322;-70
2021/10/29 05:45:14;;;;;;;11.57;9.57;;;;;;;;;;5095845;28;20031;-70
2021/10/29 05:47:40;;;;;;;13.70;10.57;;;;;;;;;;5094589;28;20062;-69
2021/10/29 05:50:09;;;;;;;13.63;10.18;;;;;;;;;;5093004;28;20058;-70
2021/10/29 05:52:39;;;;;;;12.55;9.40;;;;;;;;;;5091114;28;20392;-70
2021/10/29 05:55:16;;;;;;;14.40;9.73;;;;;;;;;;5091921;28;20035;-70
2021/10/29 05:57:43;;;;;;;11.90;9.20;;;;;;;;;;5092354;27;20043;-70
2021/10/29 06:00:10;;;;;;;14.95;10.15;;;;;;;;;;5098140;28;20042;-70
2021/10/29 06:02:37;;;;;;;11.55;9.68;;;;;;;;;;5091237;28;20020;-70
2021/10/29 06:05:03;;;;;;;11.48;8.82;;;;;;;;;;5091974;28;20061;-70
2021/10/29 06:07:29;;;;;;;17.63;9.55;;;;;;;;;;5095723;28;20038;-70
2021/10/29 06:09:56;;;;;;;11.98;9.90;;;;;;;;;;5094518;28;20511;-70
2021/10/29 06:12:22;;;;;;;11.95;9.82;;;;;;;;;;5093708;28;20483;-69
2021/10/29 06:14:48;;;;;;;14.13;9.75;;;;;;;;;;5089480;28;20028;-71
2021/10/29 06:17:17;;;;;;;11.40;9.00;;;;;;;;;;5093244;28;20410;-70
2021/10/29 06:19:44;;;;;;;10.50;9.20;;;;;;;;;;5093703;28;20027;-71
2021/10/29 06:24:37;;;;;;;14.00;9.23;;;;;;;;;;5088898;28;20031;-71
2021/10/29 06:29:56;;;;;;;11.30;10.10;;;;;;;;;;5066845;28;20052;-70
2021/10/29 06:32:23;;;;;;;12.07;10.52;;;;;;;;;;5093699;28;20027;-70
2021/10/29 06:34:49;;;;;;;17.05;10.15;;;;;;;;;;5098791;28;20020;-71
2021/10/29 06:37:16;;;;;;;10.93;9.73;;;;;;;;;;5091101;28;20106;-70
2021/10/29 06:39:44;;;;;;;12.27;10.20;;;;;;;;;;5094203;28;20030;-70
2021/10/29 06:42:15;;;;;;;12.25;9.48;;;;;;;;;;5089756;28;20016;-69
2021/10/29 07:00:57;;;;;;;16.33;10.98;;;;;;;;;;5097968;28;20077;-73
2021/10/29 07:41:37;;;;;;;12.20;9.60;;;;;;;;;;5085991;28;20116;-70
2021/10/29 07:44:13;;;;;;;13.27;9.05;;;;;;;;;;5088852;28;20492;-70
2021/10/29 07:46:39;;;;;;;12.45;8.93;;;;;;;;;;5094072;28;20028;-70
2021/10/29 07:49:06;;;;;;;15.23;10.48;;;;;;;;;;5093583;28;20631;-71
2021/10/29 07:51:33;;;;;;;12.73;9.40;;;;;;;;;;5096131;28;20507;-71
2021/10/29 07:53:59;;;;;;;11.35;9.45;;;;;;;;;;5091615;28;20533;-70
2021/10/29 07:56:26;;;;;;;14.07;10.38;;;;;;;;;;5089034;28;21032;-71
2021/10/29 07:58:52;;;;;;;14.30;9.68;;;;;;;;;;5090629;28;20035;-70
2021/10/29 08:01:18;;;;;;;13.30;9.73;;;;;;;;;;5093061;28;20016;-70
2021/10/29 08:03:44;;;;;;;11.10;9.65;;;;;;;;;;5093812;28;20383;-70
2021/10/29 08:06:11;;;;;;;16.98;10.07;;;;;;;;;;5088115;28;20020;-70
2021/10/29 08:08:37;;;;;;;17.15;10.60;;;;;;;;;;5095830;28;20080;-70
2021/10/29 08:11:03;;;;;;;14.57;10.38;;;;;;;;;;5092804;28;20050;-70
2021/10/29 08:13:29;;;;;;;14.65;9.73;;;;;;;;;;5091439;28;20016;-70
2021/10/29 08:15:59;;;;;;;11.02;9.30;;;;;;;;;;5090313;28;20024;-70
2021/10/29 08:18:26;;;;;;;15.68;9.40;;;;;;;;;;5091887;28;20043;-71
2021/10/29 08:20:52;;;;;;;11.70;9.40;;;;;;;;;;5091122;28;20034;-70
2021/10/29 08:23:19;;;;;;;14.07;9.75;;;;;;;;;;5092874;28;20431;-70
2021/10/29 08:25:45;;;;;;;12.45;9.90;;;;;;;;;;5101366;27;20015;-70
2021/10/29 08:28:11;;;;;;;20.83;9.38;;;;;;;;;;5099494;28;20027;-70
2021/10/29 08:30:38;;;;;;;11.60;10.25;;;;;;;;;;5094078;28;20038;-70
2021/10/29 08:33:04;;;;;;;11.93;10.73;;;;;;;;;;5094144;28;20083;-70
2021/10/29 08:35:30;;;;;;;13.27;10.50;;;;;;;;;;5092465;28;20038;-70
2021/10/29 08:37:56;;;;;;;11.90;9.85;;;;;;;;;;5092952;28;20024;-70
2021/10/29 08:40:24;;;;;;;11.60;10.05;;;;;;;;;;5095561;28;20019;-71
2021/10/29 08:42:51;;;;;;;13.68;11.70;;;;;;;;;;5093835;28;20051;-70
2021/10/29 08:45:18;;;;;;;15.82;11.90;;;;;;;;;;5096222;27;20159;-70
2021/10/29 08:47:45;;;;;;;17.60;11.07;;;;;;;;;;5093994;28;20035;-70
2021/10/29 08:50:13;;;;;;;13.85;11.32;;;;;;;;;;5095300;28;20051;-70
2021/10/29 08:52:40;;;;;;;13.02;11.63;;;;;;;;;;5092482;28;20066;-70
2021/10/29 08:55:08;;;;;;;24.02;13.32;;;;;;;;;;5091896;28;20024;-70
2021/10/29 08:57:35;;;;;;;15.25;11.13;;;;;;;;;;5091681;28;20020;-72
2021/10/29 09:00:05;;;;;;;13.75;10.88;;;;;;;;;;5094994;28;20042;-70
2021/10/29 09:02:35;;;;;;;13.82;11.15;;;;;;;;;;5092566;28;20030;-69
2021/10/29 09:08:16;;;;;;;14.27;9.57;;;;;;;;;;5065066;28;20543;-70
2021/10/29 09:33:56;;;;;;;10.95;9.85;;;;;;;;;;5092511;28;20085;-72
2021/10/29 09:36:29;;;;;;;14.52;10.80;;;;;;;;;;5095371;27;20829;-70
2021/10/29 09:39:06;;;;;;;11.75;9.70;;;;;;;;;;5096877;28;20070;-72
2021/10/29 09:41:32;;;;;;;12.38;10.18;;;;;;;;;;5094303;28;20024;-70
2021/10/29 09:44:00;;;;;;;11.75;9.52;;;;;;;;;;5094000;28;20028;-70
2021/10/29 09:46:37;;;;;;;10.80;9.70;;;;;;;;;;5089749;28;20463;-72
2021/10/29 09:49:19;;;;;;;11.82;10.60;;;;;;;;;;5087804;28;20069;-70
2021/10/29 09:51:54;;;;;;;12.48;10.50;;;;;;;;;;5091342;28;20534;-70
2021/10/29 09:54:27;;;;;;;13.45;11.10;;;;;;;;;;5090627;28;20085;-71
2021/10/29 09:56:54;;;;;;;13.38;11.50;;;;;;;;;;5094938;28;20020;-71
2021/10/29 09:59:21;;;;;;;13.38;11.40;;;;;;;;;;5089453;28;20020;-71
2021/10/29 10:01:48;;;;;;;18.77;11.45;;;;;;;;;;5098105;27;20539;-70
2021/10/29 10:04:14;;;;;;;12.07;10.38;;;;;;;;;;5093536;28;20162;-70
2021/10/29 10:06:41;;;;;;;13.18;10.88;;;;;;;;;;5096872;28;20061;-70
2021/10/29 10:09:09;;;;;;;17.50;11.32;;;;;;;;;;5089713;28;20123;-70
2021/10/29 10:11:36;;;;;;;14.63;10.63;;;;;;;;;;5090836;28;20020;-71
2021/10/29 10:14:04;;;;;;;12.18;10.82;;;;;;;;;;5093066;28;20130;-71
2021/10/29 10:16:32;;;;;;;13.15;11.27;;;;;;;;;;5092301;28;20028;-70
2021/10/29 10:18:59;;;;;;;13.88;11.43;;;;;;;;;;5092847;28;20020;-70
2021/10/29 10:21:26;;;;;;;15.70;12.70;;;;;;;;;;5090946;28;20598;-70
2021/10/29 10:23:55;;;;;;;16.20;13.07;;;;;;;;;;5090009;28;20089;-70
2021/10/29 10:29:10;;;;;;;27.15;18.10;;;;;;;;;;5093894;28;20111;-70
2021/10/29 10:45:46;;;;;;;13.38;11.05;;;;;;;;;;5090152;28;20035;-69
2021/10/29 10:48:53;;;;;;;16.90;11.60;;;;;;;;;;5096878;28;20047;-69
2021/10/29 10:54:06;;;;;;;15.38;12.68;;;;;;;;;;5092861;28;20032;-71
2021/10/29 11:10:17;;;;;;;11.57;10.38;;;;;;;;;;5092941;28;20048;-70
2021/10/29 11:12:44;;;;;;;15.95;11.95;;;;;;;;;;5097559;28;20019;-70
2021/10/29 11:15:22;;;;;;;14.85;11.10;;;;;;;;;;5093302;28;20093;-70
2021/10/29 11:17:50;;;;;;;11.73;10.27;;;;;;;;;;5090334;28;20666;-70
2021/10/29 11:20:36;;;;;;;15.02;10.82;;;;;;;;;;5087701;28;20027;-70
2021/10/29 11:23:12;;;;;;;12.20;10.02;;;;;;;;;;5090621;28;20028;-71
2021/10/29 11:25:56;;;;;;;12.77;9.88;;;;;;;;;;5090614;28;20051;-69
2021/10/29 11:28:25;;;;;;;10.73;9.60;;;;;;;;;;5093065;28;20019;-70
2021/10/29 11:30:53;;;;;;;10.93;8.70;;;;;;;;;;5089952;28;20416;-70
2021/10/29 11:33:19;;;;;;;14.50;9.23;;;;;;;;;;5093473;28;20035;-70
2021/10/29 11:35:58;;;;;;;10.88;8.77;;;;;;;;;;5093303;28;20035;-70
2021/10/29 11:38:24;;;;;;;10.98;8.68;;;;;;;;;;5091836;28;20084;-70
2021/10/29 11:40:52;;;;;;;10.73;8.95;;;;;;;;;;5089219;28;20028;-70
2021/10/29 11:43:26;;;;;;;14.18;8.48;;;;;;;;;;5087664;28;20364;-70
2021/10/29 11:45:53;;;;;;;10.15;7.82;;;;;;;;;;5091830;28;20038;-70
2021/10/29 11:48:19;;;;;;;15.32;9.10;;;;;;;;;;5096538;28;20450;-70
2021/10/29 11:50:46;;;;;;;11.93;8.50;;;;;;;;;;5089669;28;20394;-70
2021/10/29 11:53:14;;;;;;;10.32;8.55;;;;;;;;;;5090269;28;20028;-70
2021/10/29 11:55:49;;;;;;;10.82;8.20;;;;;;;;;;5092607;28;20110;-70
2021/10/29 11:58:24;;;;;;;8.35;7.35;;;;;;;;;;5096641;28;20451;-70
2021/10/29 12:06:19;;;;;;;10.10;8.73;;;;;;;;;;5095073;28;20039;-73
2021/10/29 12:08:45;;;;;;;10.38;8.60;;;;;;;;;;5097287;28;20073;-70
2021/10/29 12:11:12;;;;;;;12.35;8.15;;;;;;;;;;5093396;28;20487;-71
2021/10/29 12:13:40;;;;;;;11.38;9.50;;;;;;;;;;5095662;28;20076;-70
2021/10/29 12:16:14;;;;;;;15.65;9.88;;;;;;;;;;5091355;28;20031;-69
2021/10/29 12:18:46;;;;;;;12.85;8.85;;;;;;;;;;5096320;28;20077;-71
2021/10/29 12:21:20;;;;;;;10.63;9.43;;;;;;;;;;5096228;28;20689;-70
2021/10/29 12:23:49;;;;;;;11.68;8.40;;;;;;;;;;5092136;28;20016;-70
2021/10/29 12:26:21;;;;;;;13.90;9.32;;;;;;;;;;5095639;27;20024;-70
2021/10/29 12:28:50;;;;;;;14.10;9.07;;;;;;;;;;5093338;28;20669;-70
2021/10/29 13:03:57;;;;;;;9.88;8.35;;;;;;;;;;5092596;28;20024;-70
2021/10/29 13:06:28;;;;;;;10.43;8.43;;;;;;;;;;5096014;28;20035;-70
2021/10/29 13:08:54;;;;;;;12.25;7.80;;;;;;;;;;5092544;28;20035;-74
2021/10/29 13:11:22;;;;;;;11.43;7.55;;;;;;;;;;5100838;27;20085;-70
2021/10/29 13:13:54;;;;;;;10.25;8.30;;;;;;;;;;5092332;28;20028;-70
2021/10/29 13:16:21;;;;;;;;;;;;;;;;;;5092548;28;20032;-70
2021/10/29 13:28:57;;;;;;;9.60;8.60;;;;;;;;;;5092691;28;20032;-70
2021/10/29 13:34:27;;;;;;;11.30;9.07;;;;;;;;;;5093604;28;20139;-70
2021/10/29 13:56:11;;;;;;;12.18;8.68;;;;;;;;;;5048773;28;20059;-71
2021/10/29 13:59:27;;;;;;;11.85;8.68;;;;;;;;;;5085331;28;20036;-70
2021/10/29 14:16:32;;;;;;;12.65;9.25;;;;;;;;;;5089236;28;20070;-73
2021/10/29 14:31:23;;;;;;;14.68;9.25;;;;;;;;;;5089979;28;20030;-70
2021/10/29 14:34:00;;;;;;;10.63;9.40;;;;;;;;;;5088472;28;20024;-71
2021/10/29 14:36:38;;;;;;;11.48;10.07;;;;;;;;;;5091583;28;20028;-70
2021/10/29 14:39:15;;;;;;;13.88;10.55;;;;;;;;;;5092243;28;20030;-70
2021/10/29 14:41:48;;;;;;;14.70;11.35;;;;;;;;;;5092057;27;20502;-70
2021/10/29 14:44:21;;;;;;;12.32;10.25;;;;;;;;;;5093488;28;20038;-70
2021/10/29 14:52:06;;;;;;;13.55;9.75;;;;;;;;;;5090616;28;20349;-72
2021/10/29 15:45:45;;;;;;;12.73;11.23;;;;;;;;;;5094156;28;20047;-70
2021/10/29 15:48:21;;;;;;;15.50;11.57;;;;;;;;;;5097473;28;20593;-70
2021/10/29 15:50:48;;;;;;;13.70;11.38;;;;;;;;;;5095644;28;20063;-70
2021/10/29 15:53:15;;;;;;;14.18;10.77;;;;;;;;;;5093914;28;20016;-69
2021/10/29 15:55:47;;;;;;;14.98;11.82;;;;;;;;;;5090826;28;20097;-70
2021/10/29 16:01:16;;;;;;;15.07;12.40;;;;;;;;;;5023535;28;20405;-70
2021/10/29 16:03:54;;;;;;;13.38;10.82;;;;;;;;;;5096946;28;20032;-70
2021/10/29 16:17:19;;;;;;;12.05;10.50;;;;;;;;;;5093507;28;20063;-70
2021/10/29 16:19:46;;;;;;;12.10;10.35;;;;;;;;;;5096083;28;20353;-70
2021/10/29 16:22:19;;;;;;;14.90;11.68;;;;;;;;;;5094753;28;20024;-70
2021/10/29 16:27:18;;;;;;;15.60;10.60;;;;;;;;;;5097770;27;20032;-69
2021/10/29 16:29:46;;;;;;;12.88;10.77;;;;;;;;;;5092576;28;20647;-72
2021/10/29 16:34:59;;;;;;;11.05;9.70;;;;;;;;;;5065191;28;20138;-69
2021/10/29 16:37:25;;;;;;;12.32;10.13;;;;;;;;;;5093571;28;20022;-72
2021/10/29 16:39:51;;;;;;;13.35;10.93;;;;;;;;;;5092885;28;20038;-70
2021/10/29 16:42:17;;;;;;;12.45;11.07;;;;;;;;;;5094659;28;20028;-70
2021/10/29 16:44:46;;;;;;;14.80;10.55;;;;;;;;;;5093267;28;20049;-70
2021/10/29 16:47:12;;;;;;;12.05;10.20;;;;;;;;;;5098510;28;20023;-70
2021/10/29 16:49:38;;;;;;;13.77;10.63;;;;;;;;;;5095935;28;20389;-70
2021/10/29 16:52:05;;;;;;;11.23;10.02;;;;;;;;;;5092935;28;20021;-70
2021/10/29 16:54:31;;;;;;;12.65;9.77;;;;;;;;;;5093435;28;20080;-71
2021/10/29 16:56:57;;;;;;;13.70;10.18;;;;;;;;;;5091840;28;20023;-70
2021/10/29 16:59:25;;;;;;;14.00;10.38;;;;;;;;;;5091916;28;20024;-73
2021/10/29 17:01:51;;;;;;;12.13;10.48;;;;;;;;;;5093964;28;20495;-70
2021/10/29 17:04:17;;;;;;;13.27;10.48;;;;;;;;;;5092766;28;20032;-70
2021/10/29 17:06:44;;;;;;;11.82;9.77;;;;;;;;;;5091861;28;20021;-70
2021/10/29 17:09:10;;;;;;;13.23;10.50;;;;;;;;;;5096011;27;20088;-70
2021/10/29 17:11:36;;;;;;;11.85;9.57;;;;;;;;;;5093468;27;20028;-70
2021/10/29 17:14:03;;;;;;;11.80;9.50;;;;;;;;;;5094575;28;20586;-70
2021/10/29 17:16:29;;;;;;;12.13;9.30;;;;;;;;;;5090215;28;20479;-69
2021/10/29 17:18:56;;;;;;;11.57;9.55;;;;;;;;;;5100729;28;20169;-71
2021/10/29 17:21:22;;;;;;;11.32;8.95;;;;;;;;;;5093498;28;20024;-71
2021/10/29 17:23:48;;;;;;;10.27;9.18;;;;;;;;;;5091013;28;20033;-71
2021/10/29 17:26:14;;;;;;;11.27;9.68;;;;;;;;;;5107391;27;20023;-72
2021/10/29 17:28:40;;;;;;;12.35;8.63;;;;;;;;;;5089606;28;20024;-70
2021/10/29 17:31:06;;;;;;;18.25;9.60;;;;;;;;;;5092678;28;20050;-70
2021/10/29 17:33:32;;;;;;;11.35;9.50;;;;;;;;;;5094073;28;20057;-70
2021/10/29 17:35:59;;;;;;;13.88;9.50;;;;;;;;;;5091560;28;20032;-71
2021/10/29 17:38:25;;;;;;;15.05;10.07;;;;;;;;;;5093466;28;20026;-70
2021/10/29 17:40:51;;;;;;;15.02;9.93;;;;;;;;;;5092327;28;20062;-70
2021/10/29 17:43:17;;;;;;;12.02;9.95;;;;;;;;;;5093195;28;20387;-70
2021/10/29 17:45:44;;;;;;;13.52;10.25;;;;;;;;;;5091555;28;20028;-70
2021/10/29 17:48:11;;;;;;;14.90;9.85;;;;;;;;;;5092836;28;20035;-71
2021/10/29 17:50:37;;;;;;;12.30;10.43;;;;;;;;;;5092842;28;20187;-71
2021/10/29 17:53:03;;;;;;;13.07;9.45;;;;;;;;;;5086135;28;20713;-71
2021/10/29 17:55:36;;;;;;;14.10;9.75;;;;;;;;;;5095128;28;20055;-71
2021/10/29 17:58:02;;;;;;;15.00;9.98;;;;;;;;;;5091244;28;20053;-71
2021/10/29 18:00:28;;;;;;;11.93;9.90;;;;;;;;;;5094258;28;20016;-72
2021/10/29 18:02:55;;;;;;;11.38;9.60;;;;;;;;;;5094016;28;20281;-72
2021/10/29 18:05:22;;;;;;;11.27;9.55;;;;;;;;;;5095780;28;20088;-72
2021/10/29 18:07:54;;;;;;;11.93;9.52;;;;;;;;;;5087942;28;20517;-72
2021/10/29 18:10:20;;;;;;;;;;;;;;;;;;5095081;28;20520;-71
2021/10/29 18:12:46;;;;;;;11.75;9.35;;;;;;;;;;5090165;28;19961;-71
2021/10/29 18:15:12;;;;;;;13.13;9.32;;;;;;;;;;5089335;28;20551;-72
2021/10/29 18:17:39;;;;;;;11.82;8.55;;;;;;;;;;5093319;28;20269;-72
2021/10/29 18:20:05;;;;;;;14.75;9.50;;;;;;;;;;5090090;28;20066;-72
2021/10/29 18:22:31;;;;;;;11.77;8.82;;;;;;;;;;5089954;28;20269;-72
2021/10/29 18:24:57;;;;;;;19.33;10.13;;;;;;;;;;5087307;28;20484;-72
2021/10/29 18:27:26;;;;;;;10.98;8.63;;;;;;;;;;5094706;28;20494;-72
2021/10/29 18:29:55;;;;;;;13.52;9.75;;;;;;;;;;5097360;28;20407;-72
2021/10/29 18:32:22;;;;;;;12.13;9.25;;;;;;;;;;5090643;28;20045;-73
2021/10/29 18:34:50;;;;;;;14.40;9.35;;;;;;;;;;5091773;28;20641;-70
2021/10/29 18:37:18;;;;;;;12.73;9.05;;;;;;;;;;5086363;28;20024;-70
2021/10/29 18:39:45;;;;;;;15.48;9.70;;;;;;;;;;5091070;28;20037;-70
2021/10/29 18:42:11;;;;;;;11.20;9.20;;;;;;;;;;5092527;28;20202;-70
2021/10/29 18:44:37;;;;;;;16.17;11.23;;;;;;;;;;5090082;28;20154;-71
2021/10/29 18:47:04;;;;;;;10.55;8.50;;;;;;;;;;5092686;28;20032;-71
2021/10/29 18:49:30;;;;;;;13.20;9.52;;;;;;;;;;5088928;28;20055;-71
2021/10/29 18:51:59;;;;;;;13.75;8.60;;;;;;;;;;5094051;28;20051;-71
2021/10/29 18:54:25;;;;;;;9.30;8.20;;;;;;;;;;5088218;28;20036;-70
2021/10/29 18:56:51;;;;;;;12.30;8.10;;;;;;;;;;5095538;28;20554;-69
2021/10/29 18:59:18;;;;;;;14.70;9.23;;;;;;;;;;5092698;28;20636;-70
2021/10/29 19:01:45;;;;;;;13.35;9.38;;;;;;;;;;5095333;28;20019;-73
2021/10/29 19:04:11;;;;;;;11.07;8.55;;;;;;;;;;5094888;28;20051;-71
2021/10/29 19:06:38;;;;;;;8.75;7.85;;;;;;;;;;5099175;27;20021;-71
2021/10/29 19:09:04;;;;;;;10.20;7.97;;;;;;;;;;5095431;28;20554;-74
2021/10/29 19:11:40;;;;;;;10.32;8.43;;;;;;;;;;5096314;28;20024;-73
2021/10/29 19:14:08;;;;;;;10.27;8.85;;;;;;;;;;5091701;28;20427;-71
2021/10/29 19:16:34;;;;;;;11.18;8.52;;;;;;;;;;5090948;28;20039;-72
2021/10/29 19:19:00;;;;;;;11.40;8.07;;;;;;;;;;5093069;28;20488;-71
2021/10/29 19:21:26;;;;;;;10.07;8.77;;;;;;;;;;5096061;28;20681;-72
2021/10/29 19:23:53;;;;;;;10.75;8.95;;;;;;;;;;5091146;28;20016;-73